createdAt,value
2023-03-08T00:04:36.408Z,4.28
2023-03-08T00:09:39.215Z,4.25
2023-03-08T00:14:51.332Z,4.23
2023-03-08T00:19:53.762Z,4.22
2023-03-08T00:24:55.823Z,4.21
2023-03-08T00:29:58.419Z,4.21
2023-03-08T00:35:04.851Z,4.20
2023-03-08T00:40:07.882Z,4.20
2023-03-08T00:45:11.862Z,4.20
2023-03-08T00:50:16.376Z,4.20
2023-03-08T00:55:38.595Z,4.20
2023-03-08T01:00:40.772Z,4.20
2023-03-08T01:05:45.155Z,4.19
2023-03-08T01:10:50.073Z,4.18
2023-03-08T01:15:52.187Z,4.15
2023-03-08T01:20:59.247Z,4.12
2023-03-08T01:26:07.518Z,4.09
2023-03-08T01:31:16.368Z,4.04
2023-03-08T01:36:20.890Z,4.00
2023-03-08T01:41:26.741Z,3.98
2023-03-08T01:46:36.259Z,3.96
2023-03-08T01:51:56.850Z,3.94
2023-03-08T01:57:06.985Z,3.90
2023-03-08T02:02:09.420Z,3.83
2023-03-08T02:07:12.211Z,3.77
2023-03-08T02:12:15.303Z,3.71
2023-03-08T02:17:17.393Z,3.65
2023-03-08T02:22:20.440Z,3.60
2023-03-08T02:27:28.115Z,3.56
2023-03-08T02:32:30.219Z,3.51
2023-03-08T02:37:33.855Z,3.49
2023-03-08T02:42:37.123Z,3.49
2023-03-08T02:47:39.140Z,3.53
2023-03-08T02:52:42.051Z,3.60
2023-03-08T02:57:44.352Z,3.64
2023-03-08T03:02:46.363Z,3.67
2023-03-08T03:07:48.297Z,3.69
2023-03-08T03:12:53.209Z,3.69
2023-03-08T03:17:58.449Z,3.66
2023-03-08T03:23:00.633Z,3.66
2023-03-08T03:28:11.288Z,3.65
2023-03-08T03:33:13.604Z,3.62
2023-03-08T03:38:15.721Z,3.60
2023-03-08T03:43:19.316Z,3.58
2023-03-08T03:48:21.415Z,3.56
2023-03-08T03:53:24.296Z,3.51
2023-03-08T03:58:27.349Z,3.50
2023-03-08T04:03:29.909Z,3.51
2023-03-08T04:08:33.384Z,3.50
2023-03-08T04:13:38.332Z,3.47
2023-03-08T04:18:40.811Z,3.44
2023-03-08T04:23:43.873Z,3.41
2023-03-08T04:28:46.089Z,3.40
2023-03-08T04:33:48.490Z,3.39
2023-03-08T04:38:51.333Z,3.35
2023-03-08T04:43:56.328Z,3.33
2023-03-08T04:49:06.036Z,3.33
2023-03-08T04:54:13.161Z,3.31
2023-03-08T04:59:19.633Z,3.30
2023-03-08T05:04:21.638Z,3.29
2023-03-08T05:09:23.669Z,3.30
2023-03-08T05:14:26.546Z,3.29
2023-03-08T05:19:29.305Z,3.26
2023-03-08T05:24:32.151Z,3.19
2023-03-08T05:29:38.586Z,3.12
2023-03-08T05:34:40.939Z,3.06
2023-03-08T05:39:47.434Z,3.07
2023-03-08T05:44:55.879Z,3.12
2023-03-08T05:50:02.481Z,3.16
2023-03-08T05:55:07.644Z,3.18
2023-03-08T06:00:10.941Z,3.23
2023-03-08T06:05:21.897Z,3.27
2023-03-08T06:10:24.727Z,3.34
2023-03-08T06:15:27.187Z,3.41
2023-03-08T06:20:31.199Z,3.50
2023-03-08T06:25:33.229Z,3.56
2023-03-08T06:30:36.204Z,3.62
2023-03-08T06:35:39.000Z,3.72
2023-03-08T06:40:41.383Z,3.86
2023-03-08T06:45:44.143Z,4.01
2023-03-08T06:50:46.985Z,4.17
2023-03-08T06:55:50.468Z,4.29
2023-03-08T07:00:54.394Z,4.44
2023-03-08T07:06:00.719Z,4.62
2023-03-08T07:11:03.584Z,4.74
2023-03-08T07:16:08.316Z,4.77
2023-03-08T07:21:11.053Z,4.79
2023-03-08T07:26:12.990Z,4.81
2023-03-08T07:31:15.102Z,4.83
2023-03-08T07:36:17.031Z,4.87
2023-03-08T07:41:19.218Z,4.88
2023-03-08T07:46:22.233Z,4.89
2023-03-08T07:51:25.704Z,4.96
2023-03-08T07:56:27.905Z,5.11
2023-03-08T08:01:30.115Z,5.25
2023-03-08T08:06:32.067Z,5.31
2023-03-08T08:11:38.415Z,5.43
2023-03-08T08:16:40.546Z,5.63
2023-03-08T08:21:42.830Z,5.82
2023-03-08T08:26:45.266Z,5.88
2023-03-08T08:31:47.447Z,5.78
2023-03-08T08:36:50.130Z,5.63
2023-03-08T08:41:52.593Z,5.55
2023-03-08T08:46:54.563Z,5.41
2023-03-08T08:51:57.049Z,5.36
2023-03-08T08:57:00.051Z,5.40
2023-03-08T09:02:05.450Z,5.56
2023-03-08T09:07:07.845Z,5.68
2023-03-08T09:12:10.066Z,5.71
2023-03-08T09:17:12.093Z,5.70
2023-03-08T09:22:14.073Z,5.69
2023-03-08T09:27:16.569Z,5.79
2023-03-08T09:32:18.915Z,5.87
2023-03-08T09:37:21.278Z,5.95
2023-03-08T09:42:32.493Z,6.06
2023-03-08T09:47:57.991Z,6.11
2023-03-08T09:53:11.005Z,6.22
2023-03-08T09:58:41.182Z,6.37
2023-03-08T10:03:43.041Z,6.56
2023-03-08T10:09:20.724Z,6.70
2023-03-08T10:14:30.577Z,6.84
2023-03-08T10:19:42.285Z,6.91
2023-03-08T10:25:23.731Z,7.05
2023-03-08T10:30:32.440Z,7.18
2023-03-08T10:36:12.694Z,7.36
2023-03-08T10:41:16.675Z,7.56
2023-03-08T10:46:31.984Z,7.66
2023-03-08T10:51:34.712Z,7.66
2023-03-08T10:56:40.270Z,7.77
2023-03-08T11:01:51.377Z,7.91
2023-03-08T11:06:53.845Z,8.02
2023-03-08T11:11:57.870Z,8.08
2023-03-08T11:17:14.022Z,8.19
2023-03-08T11:22:28.472Z,8.26
2023-03-08T11:27:41.559Z,8.25
2023-03-08T11:33:22.165Z,8.33
2023-03-08T11:38:29.647Z,8.49
2023-03-08T11:44:09.497Z,8.60
2023-03-08T11:49:26.890Z,8.71
2023-03-08T11:55:06.009Z,8.87
2023-03-08T12:00:23.222Z,9.08
2023-03-08T12:05:30.132Z,9.12
2023-03-08T12:10:50.079Z,9.06
2023-03-08T12:16:22.403Z,9.13
2023-03-08T12:21:34.449Z,9.19
2023-03-08T12:26:44.639Z,9.22
2023-03-08T12:31:49.603Z,9.23
2023-03-08T12:36:51.755Z,9.09
2023-03-08T12:42:25.229Z,8.95
2023-03-08T12:47:28.124Z,8.83
2023-03-08T12:52:35.055Z,8.81
2023-03-08T12:57:46.686Z,8.80
2023-03-08T13:03:00.136Z,8.76
2023-03-08T13:08:21.319Z,8.71
2023-03-08T13:13:48.073Z,8.67
2023-03-08T13:19:17.264Z,8.77
2023-03-08T13:24:42.182Z,8.90
2023-03-08T13:29:47.052Z,9.01
2023-03-08T13:35:03.782Z,9.12
2023-03-08T13:40:18.867Z,9.20
2023-03-08T13:45:21.667Z,9.18
2023-03-08T13:50:33.981Z,9.07
2023-03-08T13:55:42.213Z,8.93
2023-03-08T14:00:44.312Z,8.86
2023-03-08T14:05:46.742Z,8.81
2023-03-08T14:11:03.106Z,8.80
2023-03-08T14:16:07.727Z,8.78
2023-03-08T14:21:15.685Z,8.70
2023-03-08T14:26:36.470Z,8.60
2023-03-08T14:31:39.702Z,8.50
2023-03-08T14:36:51.109Z,8.41
2023-03-08T14:41:54.235Z,8.29
2023-03-08T14:47:07.406Z,8.19
2023-03-08T14:52:20.723Z,8.11
2023-03-08T14:57:26.197Z,8.08
2023-03-08T15:02:36.784Z,7.97
2023-03-08T15:07:39.646Z,7.83
2023-03-08T15:12:41.861Z,7.70
2023-03-08T15:17:43.925Z,7.52
2023-03-08T15:22:49.582Z,7.21
2023-03-08T15:27:55.071Z,7.03
2023-03-08T15:32:59.508Z,7.00
2023-03-08T15:38:02.561Z,7.02
2023-03-08T15:43:08.007Z,7.03
2023-03-08T15:48:15.777Z,7.03
2023-03-08T15:53:29.590Z,7.02
2023-03-08T15:58:36.692Z,6.97
2023-03-08T16:03:38.638Z,6.93
2023-03-08T16:08:42.265Z,6.86
2023-03-08T16:13:44.585Z,6.80
2023-03-08T16:18:47.094Z,6.74
2023-03-08T16:23:48.887Z,6.71
2023-03-08T16:28:51.822Z,6.67
2023-03-08T16:33:54.139Z,6.64
2023-03-08T16:38:56.710Z,6.58
2023-03-08T16:43:59.257Z,6.49
2023-03-08T16:49:01.706Z,6.41
2023-03-08T16:54:04.825Z,6.34
2023-03-08T16:59:07.304Z,6.24
2023-03-08T17:04:11.330Z,6.11
2023-03-08T17:09:13.436Z,6.00
2023-03-08T17:14:16.418Z,5.95
2023-03-08T17:19:18.374Z,5.92
2023-03-08T17:24:21.776Z,5.88
2023-03-08T17:29:24.310Z,5.86
2023-03-08T17:34:26.243Z,5.84
2023-03-08T17:39:28.358Z,5.82
2023-03-08T17:44:30.516Z,5.85
2023-03-08T17:49:34.247Z,5.91
2023-03-08T17:54:37.057Z,5.96
2023-03-08T17:59:39.320Z,5.98
2023-03-08T18:04:47.349Z,5.99
2023-03-08T18:09:49.582Z,6.02
2023-03-08T18:14:54.781Z,6.06
2023-03-08T18:19:56.729Z,6.09
2023-03-08T18:24:59.012Z,6.11
2023-03-08T18:30:00.969Z,6.11
2023-03-08T18:35:09.246Z,6.10
2023-03-08T18:40:14.999Z,6.09
2023-03-08T18:45:18.349Z,6.07
2023-03-08T18:50:24.234Z,6.05
2023-03-08T18:55:29.369Z,6.01
2023-03-08T19:00:31.946Z,5.97
2023-03-08T19:05:35.968Z,5.93
2023-03-08T19:10:38.073Z,5.89
2023-03-08T19:15:43.797Z,5.85
2023-03-08T19:20:45.931Z,5.81
2023-03-08T19:26:17.570Z,5.78
2023-03-08T19:31:20.154Z,5.77
2023-03-08T19:36:22.674Z,5.78
2023-03-08T19:41:26.312Z,5.78
2023-03-08T19:46:28.737Z,5.75
2023-03-08T19:51:31.195Z,5.65
2023-03-08T19:56:34.202Z,5.57
2023-03-08T20:01:36.921Z,5.56
2023-03-08T20:06:45.078Z,5.58
2023-03-08T20:11:53.383Z,5.66
2023-03-08T20:16:56.269Z,5.77
2023-03-08T20:21:59.133Z,5.88
2023-03-08T20:27:01.325Z,5.96
2023-03-08T20:32:13.480Z,6.09
2023-03-08T20:37:15.534Z,6.19
2023-03-08T20:42:22.182Z,6.28
2023-03-08T20:47:24.244Z,6.35
2023-03-08T20:52:27.098Z,6.42
2023-03-08T20:57:30.426Z,6.47
2023-03-08T21:02:32.865Z,6.51
2023-03-08T21:07:35.127Z,6.54
2023-03-08T21:12:39.065Z,6.59
2023-03-08T21:17:41.818Z,6.66
2023-03-08T21:22:44.323Z,6.71
2023-03-08T21:27:46.249Z,6.76
2023-03-08T21:32:48.509Z,6.81
2023-03-08T21:37:50.936Z,6.85
2023-03-08T21:42:52.996Z,6.88
2023-03-08T21:47:57.546Z,6.90
2023-03-08T21:52:59.805Z,6.90
2023-03-08T21:58:02.275Z,6.89
2023-03-08T22:03:04.773Z,6.85
2023-03-08T22:08:08.381Z,6.81
2023-03-08T22:13:12.908Z,6.77
2023-03-08T22:18:15.193Z,6.77
2023-03-08T22:23:17.332Z,6.75
2023-03-08T22:28:21.287Z,6.73
2023-03-08T22:33:25.633Z,6.71
2023-03-08T22:38:33.699Z,6.68
2023-03-08T22:43:36.568Z,6.66
2023-03-08T22:48:39.260Z,6.65
2023-03-08T22:53:43.123Z,6.66
2023-03-08T22:58:46.578Z,6.72
2023-03-08T23:03:49.877Z,6.79
2023-03-08T23:08:55.676Z,6.85
2023-03-08T23:14:02.097Z,6.93
2023-03-08T23:19:04.812Z,7.02
2023-03-08T23:24:08.175Z,7.06
2023-03-08T23:29:10.399Z,7.07
2023-03-08T23:34:13.424Z,7.07
2023-03-08T23:39:15.469Z,7.04
2023-03-08T23:44:18.476Z,6.98
2023-03-08T23:49:21.150Z,6.92
2023-03-08T23:54:23.601Z,6.88
2023-03-08T23:59:26.268Z,6.87
